Time,TemperatureF,DewpointF,PressureIn,WindDirection,WindDirectionDegrees,WindSpeedMPH,WindSpeedGustMPH,Humidity,HourlyPrecipIn,Conditions,Clouds,dailyrainin,SolarRadiationWatts/m^2,SoftwareType,DateUTC
2013-04-12 00:12:00,36.0,35.0,-100.00,WSW,241,12.0,17.0,97,0.01,,,0.20,0.000000,,2013-04-12 05:12:00,
2013-04-12 00:23:00,36.0,35.0,-100.00,WSW,241,12.0,17.0,97,0.01,,,0.20,0.000000,,2013-04-12 05:23:00,
2013-04-12 00:32:00,36.0,35.0,-100.00,WSW,241,12.0,17.0,97,0.01,,,0.20,0.000000,,2013-04-12 05:32:00,
2013-04-12 00:42:00,36.0,35.0,-100.00,WSW,241,12.0,17.0,97,0.01,,,0.20,0.000000,,2013-04-12 05:42:00,
2013-04-12 01:12:00,37.0,35.0,-100.00,West,261,12.0,18.0,94,0.00,,,0.14,0.000000,,2013-04-12 06:12:00,
2013-04-12 01:22:00,37.0,35.0,-100.00,West,261,12.0,18.0,94,0.00,,,0.14,0.000000,,2013-04-12 06:22:00,
2013-04-12 01:32:00,37.0,35.0,-100.00,West,261,12.0,18.0,94,0.00,,,0.14,0.000000,,2013-04-12 06:32:00,
2013-04-12 01:42:00,37.0,35.0,-100.00,West,261,12.0,18.0,94,0.00,,,0.14,0.000000,,2013-04-12 06:42:00,
2013-04-12 02:11:00,36.0,33.0,-100.00,West,260,14.0,19.0,90,0.00,,,0.10,0.000000,,2013-04-12 07:11:00,
2013-04-12 02:22:00,36.0,33.0,-100.00,West,260,14.0,19.0,90,0.00,,,0.10,0.000000,,2013-04-12 07:22:00,
2013-04-12 02:32:00,36.0,33.0,-100.00,West,260,14.0,19.0,90,0.00,,,0.10,0.000000,,2013-04-12 07:32:00,
2013-04-12 02:42:00,36.0,33.0,-100.00,West,260,14.0,19.0,90,0.00,,,0.10,0.000000,,2013-04-12 07:42:00,
2013-04-12 03:12:00,36.0,33.0,-100.00,WSW,256,15.0,21.0,90,0.00,,,0.08,0.000000,,2013-04-12 08:12:00,
2013-04-12 03:22:00,36.0,33.0,-100.00,WSW,256,15.0,21.0,90,0.00,,,0.08,0.000000,,2013-04-12 08:22:00,
2013-04-12 03:32:00,36.0,33.0,-100.00,WSW,256,15.0,21.0,90,0.00,,,0.08,0.000000,,2013-04-12 08:32:00,
2013-04-12 03:42:00,36.0,33.0,-100.00,WSW,256,15.0,21.0,90,0.00,,,0.08,0.000000,,2013-04-12 08:42:00,
2013-04-12 04:12:00,36.0,33.0,-100.00,West,276,19.0,24.0,90,0.00,,,0.05,0.000000,,2013-04-12 09:12:00,
2013-04-12 04:22:00,36.0,33.0,-100.00,West,276,19.0,24.0,90,0.00,,,0.05,0.000000,,2013-04-12 09:22:00,
2013-04-12 04:33:00,36.0,33.0,-100.00,West,276,19.0,24.0,90,0.00,,,0.05,0.000000,,2013-04-12 09:33:00,
2013-04-12 04:43:00,36.0,33.0,-100.00,West,276,19.0,24.0,90,0.00,,,0.05,0.000000,,2013-04-12 09:43:00,
2013-04-12 05:12:00,36.0,34.0,-100.00,WNW,285,14.0,24.0,93,0.00,,,0.03,0.000000,,2013-04-12 10:12:00,
2013-04-12 05:23:00,36.0,34.0,-100.00,WNW,285,14.0,24.0,93,0.00,,,0.03,0.000000,,2013-04-12 10:23:00,
2013-04-12 05:34:00,36.0,34.0,-100.00,WNW,285,14.0,24.0,93,0.00,,,0.03,0.000000,,2013-04-12 10:34:00,
2013-04-12 05:42:00,36.0,34.0,-100.00,WNW,285,14.0,24.0,93,0.00,,,0.03,0.000000,,2013-04-12 10:42:00,
2013-04-12 06:13:00,35.0,32.0,-100.00,WNW,288,19.0,25.0,89,0.00,,,0.03,0.000000,,2013-04-12 11:13:00,
2013-04-12 06:22:00,35.0,32.0,-100.00,WNW,288,19.0,25.0,89,0.00,,,0.03,0.000000,,2013-04-12 11:22:00,
2013-04-12 06:32:00,35.0,32.0,-100.00,WNW,288,19.0,25.0,89,0.00,,,0.03,0.000000,,2013-04-12 11:32:00,
2013-04-12 06:42:00,35.0,32.0,-100.00,WNW,288,19.0,25.0,89,0.00,,,0.03,0.000000,,2013-04-12 11:42:00,
2013-04-12 07:13:00,35.0,31.0,-100.00,WNW,294,18.0,25.0,86,0.00,,,0.03,1.000000,,2013-04-12 12:13:00,
2013-04-12 07:22:00,35.0,31.0,-100.00,WNW,294,18.0,25.0,86,0.00,,,0.03,1.000000,,2013-04-12 12:22:00,
2013-04-12 07:33:00,35.0,31.0,-100.00,WNW,294,18.0,25.0,86,0.00,,,0.03,1.000000,,2013-04-12 12:33:00,
2013-04-12 07:42:00,35.0,31.0,-100.00,WNW,294,18.0,25.0,86,0.00,,,0.03,1.000000,,2013-04-12 12:42:00,
2013-04-12 08:12:00,36.0,32.0,-100.00,WNW,288,17.0,26.0,85,0.00,,,0.03,46.000000,,2013-04-12 13:12:00,
2013-04-12 08:22:00,36.0,32.0,-100.00,WNW,288,17.0,26.0,85,0.00,,,0.03,46.000000,,2013-04-12 13:22:00,
2013-04-12 08:32:00,36.0,32.0,-100.00,WNW,288,17.0,26.0,85,0.00,,,0.03,46.000000,,2013-04-12 13:32:00,
2013-04-12 08:42:00,36.0,32.0,-100.00,WNW,288,17.0,26.0,85,0.00,,,0.03,46.000000,,2013-04-12 13:42:00,
2013-04-12 09:13:00,37.0,30.0,-100.00,WNW,296,21.0,30.0,76,0.00,,,0.03,170.000000,,2013-04-12 14:13:00,
2013-04-12 09:23:00,37.0,30.0,-100.00,WNW,296,21.0,30.0,76,0.00,,,0.03,170.000000,,2013-04-12 14:23:00,
2013-04-12 09:33:00,37.0,30.0,-100.00,WNW,296,21.0,30.0,76,0.00,,,0.03,170.000000,,2013-04-12 14:33:00,
2013-04-12 09:42:00,37.0,30.0,-100.00,WNW,296,21.0,30.0,76,0.00,,,0.03,170.000000,,2013-04-12 14:42:00,
2013-04-12 10:12:00,37.0,31.0,-100.00,WNW,292,20.0,27.0,78,0.00,,,-99.99,218.000000,,2013-04-12 15:12:00,
2013-04-12 10:22:00,37.0,31.0,-100.00,WNW,292,20.0,27.0,78,0.00,,,-99.99,218.000000,,2013-04-12 15:22:00,
2013-04-12 10:33:00,37.0,31.0,-100.00,WNW,292,20.0,27.0,78,0.00,,,-99.99,218.000000,,2013-04-12 15:33:00,
2013-04-12 10:43:00,37.0,31.0,-100.00,WNW,292,20.0,27.0,78,0.00,,,-99.99,218.000000,,2013-04-12 15:43:00,
2013-04-12 11:13:00,37.0,30.0,-100.00,WNW,296,21.0,27.0,75,0.00,,,-99.99,201.000000,,2013-04-12 16:13:00,
2013-04-12 11:23:00,37.0,30.0,-100.00,WNW,296,21.0,27.0,75,0.00,,,-99.99,201.000000,,2013-04-12 16:23:00,
2013-04-12 11:33:00,37.0,30.0,-100.00,WNW,296,21.0,27.0,75,0.00,,,-99.99,201.000000,,2013-04-12 16:33:00,
2013-04-12 11:42:00,37.0,30.0,-100.00,WNW,296,21.0,27.0,75,0.00,,,-99.99,201.000000,,2013-04-12 16:42:00,
2013-04-12 12:12:00,37.0,31.0,-100.00,WNW,286,21.0,29.0,79,0.00,,,0.03,208.000000,,2013-04-12 17:12:00,
2013-04-12 12:23:00,37.0,31.0,-100.00,WNW,286,21.0,29.0,79,0.00,,,0.03,208.000000,,2013-04-12 17:23:00,
2013-04-12 12:33:00,37.0,31.0,-100.00,WNW,286,21.0,29.0,79,0.00,,,0.03,208.000000,,2013-04-12 17:33:00,
2013-04-12 12:44:00,37.0,31.0,-100.00,WNW,286,21.0,29.0,79,0.00,,,0.03,208.000000,,2013-04-12 17:44:00,
2013-04-12 13:20:00,38.0,30.0,-100.00,WNW,294,19.0,27.0,74,0.00,,,0.03,241.000000,,2013-04-12 18:20:00,
2013-04-12 14:26:00,37.0,30.0,-100.00,WNW,288,18.0,27.0,77,0.00,,,0.03,183.000000,,2013-04-12 19:26:00,
2013-04-12 14:27:00,37.0,30.0,-100.00,WNW,288,18.0,27.0,77,0.00,,,0.03,183.000000,,2013-04-12 19:27:00,
2013-04-12 14:32:00,37.0,30.0,-100.00,WNW,288,18.0,27.0,77,0.00,,,0.03,183.000000,,2013-04-12 19:32:00,
2013-04-12 14:43:00,37.0,30.0,-100.00,WNW,288,18.0,27.0,77,0.00,,,0.03,183.000000,,2013-04-12 19:43:00,
2013-04-12 15:12:00,39.0,30.0,-100.00,WNW,300,17.0,26.0,71,0.00,,,0.02,346.000000,,2013-04-12 20:12:00,
2013-04-12 15:22:00,39.0,30.0,-100.00,WNW,300,17.0,26.0,71,0.00,,,0.02,346.000000,,2013-04-12 20:22:00,
2013-04-12 15:32:00,39.0,30.0,-100.00,WNW,300,17.0,26.0,71,0.00,,,0.02,346.000000,,2013-04-12 20:32:00,
2013-04-12 15:42:00,39.0,30.0,-100.00,WNW,300,17.0,26.0,71,0.00,,,0.02,346.000000,,2013-04-12 20:42:00,
2013-04-12 16:12:00,40.0,30.0,-100.00,WNW,288,19.0,28.0,67,0.00,,,0.01,372.000000,,2013-04-12 21:12:00,
2013-04-12 16:22:00,40.0,30.0,-100.00,WNW,288,19.0,28.0,67,0.00,,,0.01,372.000000,,2013-04-12 21:22:00,
2013-04-12 16:33:00,40.0,30.0,-100.00,WNW,288,19.0,28.0,67,0.00,,,0.01,372.000000,,2013-04-12 21:33:00,
2013-04-12 16:43:00,40.0,30.0,-100.00,WNW,288,19.0,28.0,67,0.00,,,0.01,372.000000,,2013-04-12 21:43:00,
2013-04-12 17:13:00,39.0,29.0,-100.00,WNW,285,19.0,27.0,66,0.00,,,0.01,139.000000,,2013-04-12 22:13:00,
2013-04-12 17:22:00,39.0,29.0,-100.00,WNW,285,19.0,27.0,66,0.00,,,0.01,139.000000,,2013-04-12 22:22:00,
2013-04-12 17:32:00,39.0,29.0,-100.00,WNW,285,19.0,27.0,66,0.00,,,0.01,139.000000,,2013-04-12 22:32:00,
2013-04-12 17:42:00,39.0,29.0,-100.00,WNW,285,19.0,27.0,66,0.00,,,0.01,139.000000,,2013-04-12 22:42:00,
2013-04-12 18:12:00,38.0,30.0,-100.00,West,265,19.0,27.0,73,0.00,,,0.01,66.000000,,2013-04-12 23:12:00,
2013-04-12 18:22:00,38.0,30.0,-100.00,West,265,19.0,27.0,73,0.00,,,0.01,66.000000,,2013-04-12 23:22:00,
2013-04-12 18:32:00,38.0,30.0,-100.00,West,265,19.0,27.0,73,0.00,,,0.01,66.000000,,2013-04-12 23:32:00,
2013-04-12 18:42:00,38.0,30.0,-100.00,West,265,19.0,27.0,73,0.00,,,0.01,66.000000,,2013-04-12 23:42:00,
2013-04-12 19:12:00,38.0,30.0,-100.00,West,277,14.0,24.0,72,0.00,,,0.01,39.000000,,2013-04-13 00:12:00,
2013-04-12 19:22:00,38.0,30.0,-100.00,West,277,14.0,24.0,72,0.00,,,0.01,39.000000,,2013-04-13 00:22:00,
2013-04-12 19:32:00,38.0,30.0,-100.00,West,277,14.0,24.0,72,0.00,,,0.01,39.000000,,2013-04-13 00:32:00,
2013-04-12 19:42:00,38.0,30.0,-100.00,West,277,14.0,24.0,72,0.00,,,0.01,39.000000,,2013-04-13 00:42:00,
2013-04-12 20:13:00,37.0,29.0,-100.00,WNW,288,18.0,25.0,72,0.00,,,0.01,12.000000,,2013-04-13 01:13:00,
2013-04-12 20:22:00,37.0,29.0,-100.00,WNW,288,18.0,25.0,72,0.00,,,0.01,12.000000,,2013-04-13 01:22:00,
2013-04-12 20:32:00,37.0,29.0,-100.00,WNW,288,18.0,25.0,72,0.00,,,0.01,12.000000,,2013-04-13 01:32:00,
2013-04-12 20:42:00,37.0,29.0,-100.00,WNW,288,18.0,25.0,72,0.00,,,0.01,12.000000,,2013-04-13 01:42:00,
2013-04-12 21:12:00,36.0,28.0,-100.00,WNW,288,16.0,24.0,71,0.00,,,0.01,0.000000,,2013-04-13 02:12:00,
2013-04-12 21:22:00,36.0,28.0,-100.00,WNW,288,16.0,24.0,71,0.00,,,0.01,0.000000,,2013-04-13 02:22:00,
2013-04-12 21:32:00,36.0,28.0,-100.00,WNW,288,16.0,24.0,71,0.00,,,0.01,0.000000,,2013-04-13 02:32:00,
2013-04-12 21:42:00,36.0,28.0,-100.00,WNW,288,16.0,24.0,71,0.00,,,0.01,0.000000,,2013-04-13 02:42:00,
2013-04-12 22:12:00,35.0,26.0,-100.00,WNW,288,18.0,24.0,68,0.00,,,0.01,0.000000,,2013-04-13 03:12:00,
2013-04-12 22:23:00,35.0,26.0,-100.00,WNW,288,18.0,24.0,68,0.00,,,0.01,0.000000,,2013-04-13 03:23:00,
2013-04-12 22:33:00,35.0,26.0,-100.00,WNW,288,18.0,24.0,68,0.00,,,0.01,0.000000,,2013-04-13 03:33:00,
2013-04-12 22:42:00,35.0,26.0,-100.00,WNW,288,18.0,24.0,68,0.00,,,0.01,0.000000,,2013-04-13 03:42:00,
2013-04-12 23:12:00,34.0,26.0,-100.00,WNW,289,13.0,24.0,72,0.00,,,0.01,0.000000,,2013-04-13 04:12:00,
2013-04-12 23:23:00,34.0,26.0,-100.00,WNW,289,13.0,24.0,72,0.00,,,0.01,0.000000,,2013-04-13 04:23:00,
2013-04-12 23:33:00,34.0,26.0,-100.00,WNW,289,13.0,24.0,72,0.00,,,0.01,0.000000,,2013-04-13 04:33:00,
2013-04-12 23:42:00,34.0,26.0,-100.00,WNW,289,13.0,24.0,72,0.00,,,0.01,0.000000,,2013-04-13 04:42:00,